sensor_id;sensor_type;location;lat;lon;timestamp;temperature;humidity
78550;DHT22;68091;52.130;5.570;2023-04-03T00:01:03;3.30;93.80
78550;DHT22;68091;52.130;5.570;2023-04-03T00:03:29;3.30;94.00
78550;DHT22;68091;52.130;5.570;2023-04-03T00:05:54;3.30;94.10
78550;DHT22;68091;52.130;5.570;2023-04-03T00:08:20;3.30;94.10
78550;DHT22;68091;52.130;5.570;2023-04-03T00:10:46;3.30;93.90
78550;DHT22;68091;52.130;5.570;2023-04-03T00:13:12;3.30;94.00
78550;DHT22;68091;52.130;5.570;2023-04-03T00:15:39;3.30;94.00
78550;DHT22;68091;52.130;5.570;2023-04-03T00:18:07;3.20;94.20
78550;DHT22;68091;52.130;5.570;2023-04-03T00:20:33;3.20;94.20
78550;DHT22;68091;52.130;5.570;2023-04-03T00:23:00;3.10;94.60
78550;DHT22;68091;52.130;5.570;2023-04-03T00:25:26;3.30;94.60
78550;DHT22;68091;52.130;5.570;2023-04-03T00:27:52;3.20;94.50
78550;DHT22;68091;52.130;5.570;2023-04-03T00:30:20;3.10;94.60
78550;DHT22;68091;52.130;5.570;2023-04-03T00:32:51;3.00;94.80
78550;DHT22;68091;52.130;5.570;2023-04-03T00:35:18;3.10;94.80
78550;DHT22;68091;52.130;5.570;2023-04-03T00:37:45;3.10;94.70
78550;DHT22;68091;52.130;5.570;2023-04-03T00:40:13;3.10;94.60
78550;DHT22;68091;52.130;5.570;2023-04-03T00:42:41;3.10;94.80
78550;DHT22;68091;52.130;5.570;2023-04-03T00:47:37;3.00;94.80
78550;DHT22;68091;52.130;5.570;2023-04-03T00:50:04;3.00;95.10
78550;DHT22;68091;52.130;5.570;2023-04-03T00:52:34;2.90;95.20
78550;DHT22;68091;52.130;5.570;2023-04-03T00:55:03;2.90;95.30
78550;DHT22;68091;52.130;5.570;2023-04-03T00:57:30;2.90;95.50
78550;DHT22;68091;52.130;5.570;2023-04-03T01:00:05;2.90;95.60
78550;DHT22;68091;52.130;5.570;2023-04-03T01:02:34;2.80;95.70
78550;DHT22;68091;52.130;5.570;2023-04-03T01:05:00;2.80;95.70
78550;DHT22;68091;52.130;5.570;2023-04-03T01:07:29;2.90;95.70
78550;DHT22;68091;52.130;5.570;2023-04-03T01:09:58;2.80;95.60
78550;DHT22;68091;52.130;5.570;2023-04-03T01:12:30;2.80;95.90
78550;DHT22;68091;52.130;5.570;2023-04-03T01:15:02;2.80;96.00
78550;DHT22;68091;52.130;5.570;2023-04-03T01:17:32;2.80;96.40
78550;DHT22;68091;52.130;5.570;2023-04-03T01:20:16;2.70;96.10
78550;DHT22;68091;52.130;5.570;2023-04-03T01:23:22;2.70;96.30
78550;DHT22;68091;52.130;5.570;2023-04-03T01:25:53;2.60;96.40
78550;DHT22;68091;52.130;5.570;2023-04-03T01:28:31;2.60;96.50
78550;DHT22;68091;52.130;5.570;2023-04-03T01:33:38;2.70;96.60
78550;DHT22;68091;52.130;5.570;2023-04-03T01:36:05;2.60;96.70
78550;DHT22;68091;52.130;5.570;2023-04-03T01:38:31;2.50;97.00
78550;DHT22;68091;52.130;5.570;2023-04-03T01:40:57;2.70;97.00
78550;DHT22;68091;52.130;5.570;2023-04-03T01:43:23;2.50;97.00
78550;DHT22;68091;52.130;5.570;2023-04-03T01:45:48;2.50;97.20
78550;DHT22;68091;52.130;5.570;2023-04-03T01:48:20;2.50;97.00
78550;DHT22;68091;52.130;5.570;2023-04-03T01:50:45;2.50;97.10
78550;DHT22;68091;52.130;5.570;2023-04-03T01:53:15;2.50;97.20
78550;DHT22;68091;52.130;5.570;2023-04-03T01:55:40;2.40;97.30
78550;DHT22;68091;52.130;5.570;2023-04-03T01:58:06;2.40;97.50
78550;DHT22;68091;52.130;5.570;2023-04-03T02:00:35;2.30;97.60
78550;DHT22;68091;52.130;5.570;2023-04-03T02:03:02;2.30;97.70
78550;DHT22;68091;52.130;5.570;2023-04-03T02:05:28;2.30;97.80
78550;DHT22;68091;52.130;5.570;2023-04-03T02:07:53;2.30;97.80
78550;DHT22;68091;52.130;5.570;2023-04-03T02:10:19;2.40;98.00
78550;DHT22;68091;52.130;5.570;2023-04-03T02:12:45;2.20;97.90
78550;DHT22;68091;52.130;5.570;2023-04-03T02:15:11;2.30;98.40
78550;DHT22;68091;52.130;5.570;2023-04-03T02:17:37;2.10;98.40
78550;DHT22;68091;52.130;5.570;2023-04-03T02:20:03;2.20;98.40
78550;DHT22;68091;52.130;5.570;2023-04-03T02:22:29;2.20;98.50
78550;DHT22;68091;52.130;5.570;2023-04-03T02:24:55;2.20;98.50
78550;DHT22;68091;52.130;5.570;2023-04-03T02:27:20;2.10;98.70
78550;DHT22;68091;52.130;5.570;2023-04-03T02:29:46;2.10;98.70
78550;DHT22;68091;52.130;5.570;2023-04-03T02:32:12;2.10;98.80
78550;DHT22;68091;52.130;5.570;2023-04-03T02:34:38;2.00;98.80
78550;DHT22;68091;52.130;5.570;2023-04-03T02:37:03;2.00;98.90
78550;DHT22;68091;52.130;5.570;2023-04-03T02:39:29;2.00;99.00
78550;DHT22;68091;52.130;5.570;2023-04-03T02:41:55;2.00;99.30
78550;DHT22;68091;52.130;5.570;2023-04-03T02:44:21;2.00;99.30
78550;DHT22;68091;52.130;5.570;2023-04-03T02:46:46;1.90;99.30
78550;DHT22;68091;52.130;5.570;2023-04-03T02:49:12;2.00;99.60
78550;DHT22;68091;52.130;5.570;2023-04-03T02:51:38;1.90;99.50
78550;DHT22;68091;52.130;5.570;2023-04-03T02:54:04;1.90;99.60
78550;DHT22;68091;52.130;5.570;2023-04-03T02:56:29;2.00;99.40
78550;DHT22;68091;52.130;5.570;2023-04-03T02:58:55;2.00;99.40
78550;DHT22;68091;52.130;5.570;2023-04-03T03:01:21;1.90;99.60
78550;DHT22;68091;52.130;5.570;2023-04-03T03:03:47;1.90;99.60
78550;DHT22;68091;52.130;5.570;2023-04-03T03:06:15;1.90;99.60
78550;DHT22;68091;52.130;5.570;2023-04-03T03:08:41;1.90;99.80
78550;DHT22;68091;52.130;5.570;2023-04-03T03:11:11;1.80;99.90
78550;DHT22;68091;52.130;5.570;2023-04-03T03:13:39;1.80;99.90
78550;DHT22;68091;52.130;5.570;2023-04-03T03:16:06;1.80;99.90
78550;DHT22;68091;52.130;5.570;2023-04-03T03:18:32;1.70;99.90
78550;DHT22;68091;52.130;5.570;2023-04-03T03:21:00;1.70;99.90
78550;DHT22;68091;52.130;5.570;2023-04-03T03:23:30;1.80;99.90
78550;DHT22;68091;52.130;5.570;2023-04-03T03:26:13;1.50;99.90
78550;DHT22;68091;52.130;5.570;2023-04-03T03:28:48;1.80;99.90
78550;DHT22;68091;52.130;5.570;2023-04-03T03:31:13;1.70;99.90
78550;DHT22;68091;52.130;5.570;2023-04-03T03:33:40;1.80;99.90
78550;DHT22;68091;52.130;5.570;2023-04-03T03:36:07;1.80;99.90
78550;DHT22;68091;52.130;5.570;2023-04-03T03:38:32;1.80;99.90
78550;DHT22;68091;52.130;5.570;2023-04-03T03:40:58;1.80;99.90
78550;DHT22;68091;52.130;5.570;2023-04-03T03:43:24;1.70;99.90
78550;DHT22;68091;52.130;5.570;2023-04-03T03:45:51;1.70;99.90
78550;DHT22;68091;52.130;5.570;2023-04-03T03:48:18;1.70;99.90
78550;DHT22;68091;52.130;5.570;2023-04-03T03:50:44;1.70;99.90
78550;DHT22;68091;52.130;5.570;2023-04-03T03:53:10;1.70;99.90
78550;DHT22;68091;52.130;5.570;2023-04-03T03:55:36;1.60;99.90
78550;DHT22;68091;52.130;5.570;2023-04-03T03:58:02;1.60;99.90
78550;DHT22;68091;52.130;5.570;2023-04-03T04:00:29;1.70;99.90
78550;DHT22;68091;52.130;5.570;2023-04-03T04:02:55;1.70;99.90
78550;DHT22;68091;52.130;5.570;2023-04-03T04:05:21;1.70;99.90
78550;DHT22;68091;52.130;5.570;2023-04-03T04:07:47;1.70;99.90
78550;DHT22;68091;52.130;5.570;2023-04-03T04:10:13;1.70;99.90
78550;DHT22;68091;52.130;5.570;2023-04-03T04:12:39;1.70;99.90
78550;DHT22;68091;52.130;5.570;2023-04-03T04:15:06;1.60;99.90
78550;DHT22;68091;52.130;5.570;2023-04-03T04:17:31;1.60;99.90
78550;DHT22;68091;52.130;5.570;2023-04-03T04:19:57;1.60;99.90
78550;DHT22;68091;52.130;5.570;2023-04-03T04:22:23;1.60;99.90
78550;DHT22;68091;52.130;5.570;2023-04-03T04:24:49;1.50;99.90
78550;DHT22;68091;52.130;5.570;2023-04-03T04:27:15;1.50;99.90
78550;DHT22;68091;52.130;5.570;2023-04-03T04:29:41;1.40;99.90
78550;DHT22;68091;52.130;5.570;2023-04-03T04:32:07;1.40;99.90
78550;DHT22;68091;52.130;5.570;2023-04-03T04:34:34;1.40;99.90
78550;DHT22;68091;52.130;5.570;2023-04-03T04:36:59;1.40;99.90
78550;DHT22;68091;52.130;5.570;2023-04-03T04:39:25;1.30;99.90
78550;DHT22;68091;52.130;5.570;2023-04-03T04:41:51;1.30;99.90
78550;DHT22;68091;52.130;5.570;2023-04-03T04:44:17;1.20;99.90
78550;DHT22;68091;52.130;5.570;2023-04-03T04:46:43;1.30;99.90
78550;DHT22;68091;52.130;5.570;2023-04-03T04:49:09;1.30;99.90
78550;DHT22;68091;52.130;5.570;2023-04-03T04:51:34;1.20;99.90
78550;DHT22;68091;52.130;5.570;2023-04-03T04:54:00;1.20;99.90
78550;DHT22;68091;52.130;5.570;2023-04-03T04:56:26;1.20;99.90
78550;DHT22;68091;52.130;5.570;2023-04-03T04:58:52;1.20;99.90
78550;DHT22;68091;52.130;5.570;2023-04-03T05:01:18;1.20;99.90
78550;DHT22;68091;52.130;5.570;2023-04-03T05:03:44;1.20;99.90
78550;DHT22;68091;52.130;5.570;2023-04-03T05:06:10;1.10;99.90
78550;DHT22;68091;52.130;5.570;2023-04-03T05:08:36;1.10;99.90
78550;DHT22;68091;52.130;5.570;2023-04-03T05:11:02;1.10;99.90
78550;DHT22;68091;52.130;5.570;2023-04-03T05:13:27;1.10;99.90
78550;DHT22;68091;52.130;5.570;2023-04-03T05:15:53;1.20;99.90
78550;DHT22;68091;52.130;5.570;2023-04-03T05:18:19;1.10;99.90
78550;DHT22;68091;52.130;5.570;2023-04-03T05:20:45;1.10;99.90
78550;DHT22;68091;52.130;5.570;2023-04-03T05:23:11;1.20;99.90
78550;DHT22;68091;52.130;5.570;2023-04-03T05:25:40;1.10;99.90
78550;DHT22;68091;52.130;5.570;2023-04-03T05:28:06;1.10;99.90
78550;DHT22;68091;52.130;5.570;2023-04-03T05:30:32;1.10;99.90
78550;DHT22;68091;52.130;5.570;2023-04-03T05:32:59;1.20;99.90
78550;DHT22;68091;52.130;5.570;2023-04-03T05:35:25;1.10;99.90
78550;DHT22;68091;52.130;5.570;2023-04-03T05:37:51;1.10;99.90
78550;DHT22;68091;52.130;5.570;2023-04-03T05:40:16;1.30;99.90
78550;DHT22;68091;52.130;5.570;2023-04-03T05:42:44;1.00;99.90
78550;DHT22;68091;52.130;5.570;2023-04-03T05:45:10;1.10;99.90
78550;DHT22;68091;52.130;5.570;2023-04-03T05:47:36;1.10;99.90
78550;DHT22;68091;52.130;5.570;2023-04-03T05:50:03;1.30;99.90
78550;DHT22;68091;52.130;5.570;2023-04-03T05:52:31;1.00;99.90
78550;DHT22;68091;52.130;5.570;2023-04-03T05:54:58;1.10;99.90
78550;DHT22;68091;52.130;5.570;2023-04-03T05:57:24;1.10;99.90
78550;DHT22;68091;52.130;5.570;2023-04-03T05:59:50;1.20;99.90
78550;DHT22;68091;52.130;5.570;2023-04-03T06:02:19;1.20;99.90
78550;DHT22;68091;52.130;5.570;2023-04-03T06:04:45;1.20;99.90
78550;DHT22;68091;52.130;5.570;2023-04-03T06:07:13;1.10;99.90
78550;DHT22;68091;52.130;5.570;2023-04-03T06:09:41;1.40;99.90
78550;DHT22;68091;52.130;5.570;2023-04-03T06:12:07;1.50;99.90
78550;DHT22;68091;52.130;5.570;2023-04-03T06:14:33;1.50;99.90
78550;DHT22;68091;52.130;5.570;2023-04-03T06:16:59;1.40;99.90
78550;DHT22;68091;52.130;5.570;2023-04-03T06:19:25;1.50;99.90
78550;DHT22;68091;52.130;5.570;2023-04-03T06:21:51;1.80;99.90
78550;DHT22;68091;52.130;5.570;2023-04-03T06:24:17;1.60;99.90
78550;DHT22;68091;52.130;5.570;2023-04-03T06:26:43;1.50;99.90
78550;DHT22;68091;52.130;5.570;2023-04-03T06:29:09;1.70;99.90
78550;DHT22;68091;52.130;5.570;2023-04-03T06:31:35;1.70;99.90
78550;DHT22;68091;52.130;5.570;2023-04-03T06:34:04;1.70;99.90
78550;DHT22;68091;52.130;5.570;2023-04-03T06:36:32;1.80;99.90
78550;DHT22;68091;52.130;5.570;2023-04-03T06:38:58;2.30;99.90
78550;DHT22;68091;52.130;5.570;2023-04-03T06:41:24;1.90;99.90
78550;DHT22;68091;52.130;5.570;2023-04-03T06:43:51;2.00;99.90
78550;DHT22;68091;52.130;5.570;2023-04-03T06:46:22;2.00;99.90
78550;DHT22;68091;52.130;5.570;2023-04-03T06:48:49;2.00;99.90
78550;DHT22;68091;52.130;5.570;2023-04-03T06:51:26;2.10;99.90
78550;DHT22;68091;52.130;5.570;2023-04-03T06:53:54;2.20;99.70
78550;DHT22;68091;52.130;5.570;2023-04-03T06:56:21;2.20;99.50
78550;DHT22;68091;52.130;5.570;2023-04-03T06:58:47;2.30;99.40
78550;DHT22;68091;52.130;5.570;2023-04-03T07:01:18;2.30;99.30
78550;DHT22;68091;52.130;5.570;2023-04-03T07:03:48;2.40;99.10
78550;DHT22;68091;52.130;5.570;2023-04-03T07:06:15;2.50;98.70
78550;DHT22;68091;52.130;5.570;2023-04-03T07:08:42;2.40;98.70
78550;DHT22;68091;52.130;5.570;2023-04-03T07:11:08;2.70;98.60
78550;DHT22;68091;52.130;5.570;2023-04-03T07:13:35;2.80;98.30
78550;DHT22;68091;52.130;5.570;2023-04-03T07:16:02;2.80;98.30
78550;DHT22;68091;52.130;5.570;2023-04-03T07:18:29;2.90;98.20
78550;DHT22;68091;52.130;5.570;2023-04-03T07:20:55;3.00;98.20
78550;DHT22;68091;52.130;5.570;2023-04-03T07:23:21;3.20;98.00
78550;DHT22;68091;52.130;5.570;2023-04-03T07:25:48;3.40;97.50
78550;DHT22;68091;52.130;5.570;2023-04-03T07:28:15;3.70;96.90
78550;DHT22;68091;52.130;5.570;2023-04-03T07:31:00;3.80;96.40
78550;DHT22;68091;52.130;5.570;2023-04-03T07:33:26;3.90;96.30
78550;DHT22;68091;52.130;5.570;2023-04-03T07:35:52;4.10;95.20
78550;DHT22;68091;52.130;5.570;2023-04-03T07:38:18;4.30;94.70
78550;DHT22;68091;52.130;5.570;2023-04-03T07:40:49;4.40;94.50
78550;DHT22;68091;52.130;5.570;2023-04-03T07:43:16;4.50;94.10
78550;DHT22;68091;52.130;5.570;2023-04-03T07:45:42;4.50;94.20
78550;DHT22;68091;52.130;5.570;2023-04-03T07:48:09;4.60;93.10
78550;DHT22;68091;52.130;5.570;2023-04-03T07:50:35;4.60;92.60
78550;DHT22;68091;52.130;5.570;2023-04-03T07:53:02;4.70;92.20
78550;DHT22;68091;52.130;5.570;2023-04-03T07:55:28;4.80;92.40
78550;DHT22;68091;52.130;5.570;2023-04-03T07:57:54;4.90;91.70
78550;DHT22;68091;52.130;5.570;2023-04-03T08:00:21;5.00;91.90
78550;DHT22;68091;52.130;5.570;2023-04-03T08:02:47;5.20;90.90
78550;DHT22;68091;52.130;5.570;2023-04-03T08:05:21;5.30;87.70
78550;DHT22;68091;52.130;5.570;2023-04-03T08:07:47;5.20;88.80
78550;DHT22;68091;52.130;5.570;2023-04-03T08:10:14;5.30;89.20
78550;DHT22;68091;52.130;5.570;2023-04-03T08:12:41;5.40;90.10
78550;DHT22;68091;52.130;5.570;2023-04-03T08:15:10;5.60;88.00
78550;DHT22;68091;52.130;5.570;2023-04-03T08:17:36;5.50;85.60
78550;DHT22;68091;52.130;5.570;2023-04-03T08:20:04;5.40;86.00
78550;DHT22;68091;52.130;5.570;2023-04-03T08:22:30;5.50;85.20
78550;DHT22;68091;52.130;5.570;2023-04-03T08:24:56;5.50;83.10
78550;DHT22;68091;52.130;5.570;2023-04-03T08:27:22;5.70;83.40
78550;DHT22;68091;52.130;5.570;2023-04-03T08:29:48;5.80;81.20
78550;DHT22;68091;52.130;5.570;2023-04-03T08:32:15;5.80;79.10
78550;DHT22;68091;52.130;5.570;2023-04-03T08:34:41;5.90;77.00
78550;DHT22;68091;52.130;5.570;2023-04-03T08:37:07;5.80;78.40
78550;DHT22;68091;52.130;5.570;2023-04-03T08:39:32;5.90;78.40
78550;DHT22;68091;52.130;5.570;2023-04-03T08:42:03;6.00;77.50
78550;DHT22;68091;52.130;5.570;2023-04-03T08:47:28;6.20;68.50
78550;DHT22;68091;52.130;5.570;2023-04-03T08:50:16;6.20;71.80
78550;DHT22;68091;52.130;5.570;2023-04-03T08:52:52;6.40;69.40
78550;DHT22;68091;52.130;5.570;2023-04-03T08:55:39;6.60;71.20
78550;DHT22;68091;52.130;5.570;2023-04-03T08:58:30;6.80;64.50
78550;DHT22;68091;52.130;5.570;2023-04-03T09:01:21;6.70;63.50
78550;DHT22;68091;52.130;5.570;2023-04-03T09:03:48;6.60;64.80
78550;DHT22;68091;52.130;5.570;2023-04-03T09:06:33;6.70;61.70
78550;DHT22;68091;52.130;5.570;2023-04-03T09:12:20;6.90;57.10
78550;DHT22;68091;52.130;5.570;2023-04-03T09:22:45;7.30;51.10
78550;DHT22;68091;52.130;5.570;2023-04-03T09:25:44;7.10;52.80
78550;DHT22;68091;52.130;5.570;2023-04-03T09:28:10;7.30;51.50
78550;DHT22;68091;52.130;5.570;2023-04-03T09:30:36;7.30;51.50
78550;DHT22;68091;52.130;5.570;2023-04-03T09:33:03;7.40;49.40
78550;DHT22;68091;52.130;5.570;2023-04-03T09:35:32;7.40;48.60
78550;DHT22;68091;52.130;5.570;2023-04-03T09:37:59;7.50;49.20
78550;DHT22;68091;52.130;5.570;2023-04-03T09:42:54;7.70;49.80
78550;DHT22;68091;52.130;5.570;2023-04-03T09:45:30;7.80;46.40
78550;DHT22;68091;52.130;5.570;2023-04-03T09:48:18;7.90;48.70
78550;DHT22;68091;52.130;5.570;2023-04-03T09:53:45;8.00;46.40
78550;DHT22;68091;52.130;5.570;2023-04-03T09:56:26;8.30;46.80
78550;DHT22;68091;52.130;5.570;2023-04-03T09:59:08;8.30;45.40
78550;DHT22;68091;52.130;5.570;2023-04-03T10:01:41;8.30;46.80
78550;DHT22;68091;52.130;5.570;2023-04-03T10:04:14;8.40;45.30
78550;DHT22;68091;52.130;5.570;2023-04-03T10:06:46;8.50;46.70
78550;DHT22;68091;52.130;5.570;2023-04-03T10:09:23;8.70;46.80
78550;DHT22;68091;52.130;5.570;2023-04-03T10:12:09;8.60;42.00
78550;DHT22;68091;52.130;5.570;2023-04-03T10:14:39;8.70;44.20
78550;DHT22;68091;52.130;5.570;2023-04-03T10:17:21;8.70;43.60
78550;DHT22;68091;52.130;5.570;2023-04-03T10:22:56;8.60;45.80
78550;DHT22;68091;52.130;5.570;2023-04-03T10:28:20;8.60;42.50
78550;DHT22;68091;52.130;5.570;2023-04-03T10:31:09;8.70;44.40
78550;DHT22;68091;52.130;5.570;2023-04-03T10:34:00;8.90;44.40
78550;DHT22;68091;52.130;5.570;2023-04-03T10:53:37;9.30;42.50
78550;DHT22;68091;52.130;5.570;2023-04-03T10:58:42;9.50;45.00
78550;DHT22;68091;52.130;5.570;2023-04-03T11:01:13;9.50;44.30
78550;DHT22;68091;52.130;5.570;2023-04-03T11:03:43;9.50;42.80
78550;DHT22;68091;52.130;5.570;2023-04-03T11:06:15;9.50;43.90
78550;DHT22;68091;52.130;5.570;2023-04-03T11:09:07;9.40;44.40
78550;DHT22;68091;52.130;5.570;2023-04-03T11:11:39;9.40;44.50
78550;DHT22;68091;52.130;5.570;2023-04-03T11:14:17;9.60;44.50
78550;DHT22;68091;52.130;5.570;2023-04-03T11:16:50;9.70;45.70
78550;DHT22;68091;52.130;5.570;2023-04-03T11:19:21;9.60;44.10
78550;DHT22;68091;52.130;5.570;2023-04-03T11:22:04;9.60;43.70
78550;DHT22;68091;52.130;5.570;2023-04-03T11:24:36;9.70;43.80
78550;DHT22;68091;52.130;5.570;2023-04-03T11:27:05;9.60;43.30
78550;DHT22;68091;52.130;5.570;2023-04-03T11:29:36;9.80;44.10
78550;DHT22;68091;52.130;5.570;2023-04-03T11:32:43;9.70;42.90
78550;DHT22;68091;52.130;5.570;2023-04-03T11:35:16;9.70;43.30
78550;DHT22;68091;52.130;5.570;2023-04-03T11:37:48;9.80;42.30
78550;DHT22;68091;52.130;5.570;2023-04-03T11:40:26;9.70;42.30
78550;DHT22;68091;52.130;5.570;2023-04-03T11:43:03;9.80;43.20
78550;DHT22;68091;52.130;5.570;2023-04-03T11:45:37;9.80;42.60
78550;DHT22;68091;52.130;5.570;2023-04-03T11:50:48;10.20;44.20
78550;DHT22;68091;52.130;5.570;2023-04-03T11:56:03;10.00;42.80
78550;DHT22;68091;52.130;5.570;2023-04-03T11:58:31;10.20;44.30
78550;DHT22;68091;52.130;5.570;2023-04-03T12:01:07;10.20;43.40
78550;DHT22;68091;52.130;5.570;2023-04-03T12:03:57;10.20;43.40
78550;DHT22;68091;52.130;5.570;2023-04-03T12:08:58;10.20;41.80
78550;DHT22;68091;52.130;5.570;2023-04-03T12:11:30;10.00;41.80
78550;DHT22;68091;52.130;5.570;2023-04-03T12:22:15;10.20;42.20
78550;DHT22;68091;52.130;5.570;2023-04-03T12:24:49;10.30;42.10
78550;DHT22;68091;52.130;5.570;2023-04-03T12:27:33;10.20;42.60
78550;DHT22;68091;52.130;5.570;2023-04-03T12:36:08;10.60;42.40
78550;DHT22;68091;52.130;5.570;2023-04-03T12:39:00;10.30;42.70
78550;DHT22;68091;52.130;5.570;2023-04-03T12:41:44;10.40;42.90
78550;DHT22;68091;52.130;5.570;2023-04-03T12:44:22;10.40;42.80
78550;DHT22;68091;52.130;5.570;2023-04-03T12:46:53;10.30;43.20
78550;DHT22;68091;52.130;5.570;2023-04-03T12:49:41;10.50;43.70
78550;DHT22;68091;52.130;5.570;2023-04-03T12:52:28;10.50;43.20
78550;DHT22;68091;52.130;5.570;2023-04-03T12:54:56;10.60;43.00
78550;DHT22;68091;52.130;5.570;2023-04-03T12:57:27;10.50;43.20
78550;DHT22;68091;52.130;5.570;2023-04-03T12:59:53;10.40;41.90
78550;DHT22;68091;52.130;5.570;2023-04-03T13:02:30;10.50;43.50
78550;DHT22;68091;52.130;5.570;2023-04-03T13:04:58;10.60;43.90
78550;DHT22;68091;52.130;5.570;2023-04-03T13:07:35;10.90;44.40
78550;DHT22;68091;52.130;5.570;2023-04-03T13:12:32;11.00;42.20
78550;DHT22;68091;52.130;5.570;2023-04-03T13:15:14;11.00;45.00
78550;DHT22;68091;52.130;5.570;2023-04-03T13:17:42;10.90;44.80
78550;DHT22;68091;52.130;5.570;2023-04-03T13:20:24;11.00;43.20
78550;DHT22;68091;52.130;5.570;2023-04-03T13:22:55;10.90;43.30
78550;DHT22;68091;52.130;5.570;2023-04-03T13:25:23;10.90;43.00
78550;DHT22;68091;52.130;5.570;2023-04-03T13:27:49;10.80;43.40
78550;DHT22;68091;52.130;5.570;2023-04-03T13:30:36;11.20;43.60
78550;DHT22;68091;52.130;5.570;2023-04-03T13:33:05;11.40;41.60
78550;DHT22;68091;52.130;5.570;2023-04-03T13:35:38;11.90;40.20
78550;DHT22;68091;52.130;5.570;2023-04-03T13:38:28;11.80;40.90
78550;DHT22;68091;52.130;5.570;2023-04-03T13:41:21;11.90;41.50
78550;DHT22;68091;52.130;5.570;2023-04-03T13:43:49;12.30;40.20
78550;DHT22;68091;52.130;5.570;2023-04-03T13:48:50;12.00;39.90
78550;DHT22;68091;52.130;5.570;2023-04-03T13:53:54;12.40;39.20
78550;DHT22;68091;52.130;5.570;2023-04-03T13:56:34;12.40;39.50
78550;DHT22;68091;52.130;5.570;2023-04-03T14:04:32;12.40;37.60
78550;DHT22;68091;52.130;5.570;2023-04-03T14:06:58;12.90;40.50
78550;DHT22;68091;52.130;5.570;2023-04-03T14:09:26;12.50;39.00
78550;DHT22;68091;52.130;5.570;2023-04-03T14:12:00;12.00;40.40
78550;DHT22;68091;52.130;5.570;2023-04-03T14:14:33;11.90;41.40
78550;DHT22;68091;52.130;5.570;2023-04-03T14:17:03;11.90;42.50
78550;DHT22;68091;52.130;5.570;2023-04-03T14:19:39;12.30;41.30
78550;DHT22;68091;52.130;5.570;2023-04-03T14:22:23;12.00;42.40
78550;DHT22;68091;52.130;5.570;2023-04-03T14:24:50;11.30;42.10
78550;DHT22;68091;52.130;5.570;2023-04-03T14:29:46;11.10;45.00
78550;DHT22;68091;52.130;5.570;2023-04-03T14:32:16;11.40;43.90
78550;DHT22;68091;52.130;5.570;2023-04-03T14:34:43;11.40;43.30
78550;DHT22;68091;52.130;5.570;2023-04-03T14:37:12;11.60;44.30
78550;DHT22;68091;52.130;5.570;2023-04-03T14:39:38;11.80;42.70
78550;DHT22;68091;52.130;5.570;2023-04-03T14:42:04;11.60;43.90
78550;DHT22;68091;52.130;5.570;2023-04-03T14:44:30;11.70;44.20
78550;DHT22;68091;52.130;5.570;2023-04-03T14:46:58;12.00;43.60
78550;DHT22;68091;52.130;5.570;2023-04-03T14:49:30;12.30;43.40
78550;DHT22;68091;52.130;5.570;2023-04-03T14:51:57;12.30;45.10
78550;DHT22;68091;52.130;5.570;2023-04-03T14:54:24;12.20;43.40
78550;DHT22;68091;52.130;5.570;2023-04-03T14:56:59;11.80;43.00
78550;DHT22;68091;52.130;5.570;2023-04-03T14:59:25;11.50;44.40
78550;DHT22;68091;52.130;5.570;2023-04-03T15:01:52;11.70;45.40
78550;DHT22;68091;52.130;5.570;2023-04-03T15:04:19;12.20;45.00
78550;DHT22;68091;52.130;5.570;2023-04-03T15:06:46;12.40;44.40
78550;DHT22;68091;52.130;5.570;2023-04-03T15:09:20;12.50;43.30
78550;DHT22;68091;52.130;5.570;2023-04-03T15:11:48;12.70;41.60
78550;DHT22;68091;52.130;5.570;2023-04-03T15:14:26;12.50;41.40
78550;DHT22;68091;52.130;5.570;2023-04-03T15:16:55;12.50;41.80
78550;DHT22;68091;52.130;5.570;2023-04-03T15:19:28;12.90;41.30
78550;DHT22;68091;52.130;5.570;2023-04-03T15:21:54;13.10;40.60
78550;DHT22;68091;52.130;5.570;2023-04-03T15:24:20;13.00;40.60
78550;DHT22;68091;52.130;5.570;2023-04-03T15:27:02;13.10;40.80
78550;DHT22;68091;52.130;5.570;2023-04-03T15:29:28;13.60;41.10
78550;DHT22;68091;52.130;5.570;2023-04-03T15:32:27;14.50;38.40
78550;DHT22;68091;52.130;5.570;2023-04-03T15:34:46;14.60;38.00
78550;DHT22;68091;52.130;5.570;2023-04-03T15:37:12;14.30;38.50
78550;DHT22;68091;52.130;5.570;2023-04-03T15:39:38;15.60;36.30
78550;DHT22;68091;52.130;5.570;2023-04-03T15:42:04;15.60;35.10
78550;DHT22;68091;52.130;5.570;2023-04-03T15:44:33;15.70;35.60
78550;DHT22;68091;52.130;5.570;2023-04-03T15:46:59;16.20;35.40
78550;DHT22;68091;52.130;5.570;2023-04-03T15:49:26;16.60;34.20
78550;DHT22;68091;52.130;5.570;2023-04-03T15:51:52;16.90;34.20
78550;DHT22;68091;52.130;5.570;2023-04-03T15:54:18;16.30;34.80
78550;DHT22;68091;52.130;5.570;2023-04-03T15:56:50;15.90;36.90
78550;DHT22;68091;52.130;5.570;2023-04-03T15:59:16;17.90;33.80
78550;DHT22;68091;52.130;5.570;2023-04-03T16:01:45;17.80;32.30
78550;DHT22;68091;52.130;5.570;2023-04-03T16:04:11;17.60;32.70
78550;DHT22;68091;52.130;5.570;2023-04-03T16:06:38;16.90;34.90
78550;DHT22;68091;52.130;5.570;2023-04-03T16:09:07;16.80;33.80
78550;DHT22;68091;52.130;5.570;2023-04-03T16:11:33;16.60;34.10
78550;DHT22;68091;52.130;5.570;2023-04-03T16:14:01;16.30;34.40
78550;DHT22;68091;52.130;5.570;2023-04-03T16:16:27;15.50;36.60
78550;DHT22;68091;52.130;5.570;2023-04-03T16:18:54;16.20;35.50
78550;DHT22;68091;52.130;5.570;2023-04-03T16:21:21;15.70;36.40
78550;DHT22;68091;52.130;5.570;2023-04-03T16:23:50;15.70;37.20
78550;DHT22;68091;52.130;5.570;2023-04-03T16:26:19;15.60;36.70
78550;DHT22;68091;52.130;5.570;2023-04-03T16:28:45;15.40;36.10
78550;DHT22;68091;52.130;5.570;2023-04-03T16:31:11;16.00;34.90
78550;DHT22;68091;52.130;5.570;2023-04-03T16:33:38;15.40;35.80
78550;DHT22;68091;52.130;5.570;2023-04-03T16:36:05;15.30;36.50
78550;DHT22;68091;52.130;5.570;2023-04-03T16:38:31;14.20;38.70
78550;DHT22;68091;52.130;5.570;2023-04-03T16:40:57;12.90;41.60
78550;DHT22;68091;52.130;5.570;2023-04-03T16:43:26;11.70;44.20
78550;DHT22;68091;52.130;5.570;2023-04-03T16:45:55;10.50;46.70
78550;DHT22;68091;52.130;5.570;2023-04-03T16:48:21;10.10;50.00
78550;DHT22;68091;52.130;5.570;2023-04-03T16:50:48;9.80;49.30
78550;DHT22;68091;52.130;5.570;2023-04-03T16:53:17;9.60;49.50
78550;DHT22;68091;52.130;5.570;2023-04-03T16:55:43;9.30;50.80
78550;DHT22;68091;52.130;5.570;2023-04-03T16:58:09;9.10;50.70
78550;DHT22;68091;52.130;5.570;2023-04-03T17:00:35;8.90;52.30
78550;DHT22;68091;52.130;5.570;2023-04-03T17:03:04;8.80;54.00
78550;DHT22;68091;52.130;5.570;2023-04-03T17:05:30;8.80;54.70
78550;DHT22;68091;52.130;5.570;2023-04-03T17:08:06;8.80;54.60
78550;DHT22;68091;52.130;5.570;2023-04-03T17:10:32;8.80;54.60
78550;DHT22;68091;52.130;5.570;2023-04-03T17:13:00;8.60;54.70
78550;DHT22;68091;52.130;5.570;2023-04-03T17:15:26;8.60;55.60
78550;DHT22;68091;52.130;5.570;2023-04-03T17:17:53;8.60;55.40
78550;DHT22;68091;52.130;5.570;2023-04-03T17:20:19;8.50;56.10
78550;DHT22;68091;52.130;5.570;2023-04-03T17:22:45;8.50;55.70
78550;DHT22;68091;52.130;5.570;2023-04-03T17:25:11;8.40;55.50